Sutton Bonington, United Kingdom

3:51 PM GMT on February 19, 2017 (GMT +0000)
Main Street, Sutton Bonington | | Change Station

Elev 115 ft 52.82 °N, 1.25 °W | Updated 1 minute ago

Mostly Cloudy
Mostly Cloudy
52.7 °F
Feels Like 52.7 °F
N
1.0
Wind Variable Wind from WSW
Gusts 4.0 mph

Today
High -- | Low -- °F
--% Chance of Precip.
Yesterday
High -- | Low -- °F
Precip. -- in
Pressure 30.12 in
Visibility 6.2 miles
Clouds Mostly Cloudy 2100 ft
Dew Point 47 °F
Humidity 81%
Rainfall 0.00 in
Snow Depth Not available.
7:13 AM 5:25 PM
Last Quarter, 42% visible
METAR EGNX 191520Z 24007KT 9999 BKN021 11/07 Q1020
Pressure 30.12 in
Visibility 6.2 miles
Clouds Mostly Cloudy 2100 ft
Dew Point 47 °F
Humidity 81%
Rainfall 0.00 in
Snow Depth Not available.
7:13 AM 5:25 PM
Last Quarter, 42% visible
METAR EGNX 191520Z 24007KT 9999 BKN021 11/07 Q1020

Get Your Daily Forecast Email!

Thanks for signing up!

Be on the lookout for a verification email in your inbox.

You'll start receiving the daily forecast at 8 AM.

×

10-Day Weather Forecast

×

Almanac

Astronomy

Feb. 19, 2017 Rise Set
Actual Time
Civil Twilight
Nautical Twilight
Astronomical Twilight
Moon
Length of Visible Light
Length of Day
Tomorrow will be .
, % of the Moon is Illuminated

Today's Extremes

Country Highs Country Lows

Community

WunderPhotos

Upload Photos

1,962,540 photos uploaded!

WunderBlog® & News

Nearby

Air Quality

  Air Quality AQ Index Pollutant
Not available.

Snow Depth

Station Depth Elevation

Earthquake Activity

City Distance Mag. Time & Date
Minimum magnitude displayed is 2.5.

Coastal Water Temperatures

Place Temperature

Stations

Nearby Weather Stations

Station Location Temp. Windchill Dew Point Humidity Wind Precip. Elev Updated Type